sensor_id;sensor_type;location;lat;lon;timestamp;pressure;altitude;pressure_sealevel;temperature;humidity
56811;BME280;42691;47.234;27.494;2022-10-15T00:02:16;100252.78;;;16.97;100.00
56811;BME280;42691;47.234;27.494;2022-10-15T00:04:41;100247.63;;;16.95;100.00
56811;BME280;42691;47.234;27.494;2022-10-15T00:07:07;100249.41;;;16.95;100.00
56811;BME280;42691;47.234;27.494;2022-10-15T00:09:32;100246.03;;;16.93;100.00
56811;BME280;42691;47.234;27.494;2022-10-15T00:11:58;100241.81;;;16.90;100.00
56811;BME280;42691;47.234;27.494;2022-10-15T00:14:23;100250.75;;;16.87;100.00
56811;BME280;42691;47.234;27.494;2022-10-15T00:16:48;100253.38;;;16.87;100.00
56811;BME280;42691;47.234;27.494;2022-10-15T00:19:14;100221.13;;;16.71;100.00
56811;BME280;42691;47.234;27.494;2022-10-15T00:21:39;100202.78;;;16.57;100.00
56811;BME280;42691;47.234;27.494;2022-10-15T00:24:05;100243.28;;;16.81;100.00
56811;BME280;42691;47.234;27.494;2022-10-15T00:26:31;100242.63;;;16.78;100.00
56811;BME280;42691;47.234;27.494;2022-10-15T00:28:59;100199.63;;;16.52;100.00
56811;BME280;42691;47.234;27.494;2022-10-15T00:31:27;100237.56;;;16.75;100.00
56811;BME280;42691;47.234;27.494;2022-10-15T00:33:55;100243.47;;;16.78;100.00
56811;BME280;42691;47.234;27.494;2022-10-15T00:36:23;100243.69;;;16.75;100.00
56811;BME280;42691;47.234;27.494;2022-10-15T00:38:50;100247.25;;;16.74;100.00
56811;BME280;42691;47.234;27.494;2022-10-15T00:41:26;100247.41;;;16.71;100.00
56811;BME280;42691;47.234;27.494;2022-10-15T00:44:01;100242.25;;;16.70;100.00
56811;BME280;42691;47.234;27.494;2022-10-15T00:46:37;100243.19;;;16.69;100.00
56811;BME280;42691;47.234;27.494;2022-10-15T00:49:23;100206.94;;;16.47;100.00
56811;BME280;42691;47.234;27.494;2022-10-15T00:51:58;100243.47;;;16.64;100.00
56811;BME280;42691;47.234;27.494;2022-10-15T00:54:26;100240.00;;;16.64;100.00
56811;BME280;42691;47.234;27.494;2022-10-15T00:56:54;100234.31;;;16.57;100.00
56811;BME280;42691;47.234;27.494;2022-10-15T00:59:23;100235.03;;;16.59;100.00
56811;BME280;42691;47.234;27.494;2022-10-15T01:01:49;100235.78;;;16.61;100.00
56811;BME280;42691;47.234;27.494;2022-10-15T01:04:15;100243.75;;;16.60;100.00
56811;BME280;42691;47.234;27.494;2022-10-15T01:06:43;100236.19;;;16.55;100.00
56811;BME280;42691;47.234;27.494;2022-10-15T01:09:08;100240.69;;;16.53;100.00
56811;BME280;42691;47.234;27.494;2022-10-15T01:11:46;100239.94;;;16.51;100.00
56811;BME280;42691;47.234;27.494;2022-10-15T01:17:04;100231.72;;;16.43;100.00
56811;BME280;42691;47.234;27.494;2022-10-15T01:22:51;100246.25;;;16.48;100.00
56811;BME280;42691;47.234;27.494;2022-10-15T01:31:12;100230.22;;;16.39;100.00
56811;BME280;42691;47.234;27.494;2022-10-15T01:33:46;100240.53;;;16.42;100.00
56811;BME280;42691;47.234;27.494;2022-10-15T01:36:17;100242.22;;;16.43;100.00
56811;BME280;42691;47.234;27.494;2022-10-15T01:38:59;100244.94;;;16.41;100.00
56811;BME280;42691;47.234;27.494;2022-10-15T01:41:56;100244.00;;;16.42;100.00
56811;BME280;42691;47.234;27.494;2022-10-15T01:44:27;100241.38;;;16.42;100.00
56811;BME280;42691;47.234;27.494;2022-10-15T01:47:03;100239.78;;;16.40;100.00
56811;BME280;42691;47.234;27.494;2022-10-15T01:49:33;100243.47;;;16.37;100.00
56811;BME280;42691;47.234;27.494;2022-10-15T01:52:04;100241.78;;;16.36;100.00
56811;BME280;42691;47.234;27.494;2022-10-15T01:54:31;100243.56;;;16.36;100.00
56811;BME280;42691;47.234;27.494;2022-10-15T01:56:57;100230.25;;;16.24;100.00
56811;BME280;42691;47.234;27.494;2022-10-15T01:59:26;100246.19;;;16.36;100.00
56811;BME280;42691;47.234;27.494;2022-10-15T02:01:53;100237.38;;;16.37;100.00
56811;BME280;42691;47.234;27.494;2022-10-15T02:04:24;100240.75;;;16.39;100.00
56811;BME280;42691;47.234;27.494;2022-10-15T02:06:59;100246.00;;;16.39;100.00
56811;BME280;42691;47.234;27.494;2022-10-15T02:15:09;100244.31;;;16.38;100.00
56811;BME280;42691;47.234;27.494;2022-10-15T02:20:23;100237.38;;;16.37;100.00
56811;BME280;42691;47.234;27.494;2022-10-15T02:23:03;100231.44;;;16.33;100.00
56811;BME280;42691;47.234;27.494;2022-10-15T02:25:34;100229.66;;;16.34;100.00
56811;BME280;42691;47.234;27.494;2022-10-15T02:28:02;100238.13;;;16.39;100.00
56811;BME280;42691;47.234;27.494;2022-10-15T02:30:30;100244.22;;;16.39;100.00
56811;BME280;42691;47.234;27.494;2022-10-15T02:32:58;100246.84;;;16.39;100.00
56811;BME280;42691;47.234;27.494;2022-10-15T02:35:25;100249.56;;;16.38;100.00
56811;BME280;42691;47.234;27.494;2022-10-15T02:37:53;100234.91;;;16.34;100.00
56811;BME280;42691;47.234;27.494;2022-10-15T02:40:26;100210.75;;;16.14;100.00
56811;BME280;42691;47.234;27.494;2022-10-15T02:42:53;100237.81;;;16.29;100.00
56811;BME280;42691;47.234;27.494;2022-10-15T02:45:20;100238.13;;;16.24;100.00
56811;BME280;42691;47.234;27.494;2022-10-15T02:47:45;100237.47;;;16.21;100.00
56811;BME280;42691;47.234;27.494;2022-10-15T02:50:11;100239.44;;;16.17;100.00
56811;BME280;42691;47.234;27.494;2022-10-15T02:52:36;100238.78;;;16.14;100.00
56811;BME280;42691;47.234;27.494;2022-10-15T02:55:02;100237.19;;;16.11;100.00
56811;BME280;42691;47.234;27.494;2022-10-15T02:57:27;100237.19;;;16.11;100.00
56811;BME280;42691;47.234;27.494;2022-10-15T02:59:53;100235.53;;;16.10;100.00
56811;BME280;42691;47.234;27.494;2022-10-15T03:02:18;100235.63;;;16.09;100.00
56811;BME280;42691;47.234;27.494;2022-10-15T03:04:43;100230.28;;;16.10;100.00
56811;BME280;42691;47.234;27.494;2022-10-15T03:07:09;100234.38;;;16.14;100.00
56811;BME280;42691;47.234;27.494;2022-10-15T03:09:34;100231.75;;;16.14;100.00
56811;BME280;42691;47.234;27.494;2022-10-15T03:12:00;100231.75;;;16.14;100.00
56811;BME280;42691;47.234;27.494;2022-10-15T03:14:25;100230.28;;;16.10;100.00
56811;BME280;42691;47.234;27.494;2022-10-15T03:16:51;100228.78;;;16.06;100.00
56811;BME280;42691;47.234;27.494;2022-10-15T03:19:16;100234.88;;;16.07;100.00
56811;BME280;42691;47.234;27.494;2022-10-15T03:21:41;100231.41;;;16.06;100.00
56811;BME280;42691;47.234;27.494;2022-10-15T03:24:07;100223.72;;;16.03;100.00
56811;BME280;42691;47.234;27.494;2022-10-15T03:26:33;100231.22;;;16.09;100.00
56811;BME280;42691;47.234;27.494;2022-10-15T03:28:58;100225.22;;;16.07;100.00
56811;BME280;42691;47.234;27.494;2022-10-15T03:31:24;100235.72;;;16.07;100.00
56811;BME280;42691;47.234;27.494;2022-10-15T03:33:49;100227.19;;;16.04;100.00
56811;BME280;42691;47.234;27.494;2022-10-15T03:36:15;100234.22;;;16.03;100.00
56811;BME280;42691;47.234;27.494;2022-10-15T03:38:40;100231.78;;;16.00;100.00
56811;BME280;42691;47.234;27.494;2022-10-15T03:41:05;100230.00;;;16.01;100.00
56811;BME280;42691;47.234;27.494;2022-10-15T03:43:31;100239.66;;;16.00;100.00
56811;BME280;42691;47.234;27.494;2022-10-15T03:46:00;100237.13;;;15.99;100.00
56811;BME280;42691;47.234;27.494;2022-10-15T03:48:26;100214.91;;;15.90;100.00
56811;BME280;42691;47.234;27.494;2022-10-15T03:50:51;100231.00;;;15.98;100.00
56811;BME280;42691;47.234;27.494;2022-10-15T03:53:17;100229.31;;;15.97;100.00
56811;BME280;42691;47.234;27.494;2022-10-15T03:55:42;100222.03;;;15.88;100.00
56811;BME280;42691;47.234;27.494;2022-10-15T03:58:08;100227.81;;;15.93;100.00
56811;BME280;42691;47.234;27.494;2022-10-15T04:00:33;100234.09;;;15.90;100.00
56811;BME280;42691;47.234;27.494;2022-10-15T04:02:58;100217.91;;;15.84;100.00
56811;BME280;42691;47.234;27.494;2022-10-15T04:05:24;100236.81;;;15.89;100.00
56811;BME280;42691;47.234;27.494;2022-10-15T04:07:49;100236.81;;;15.89;100.00
56811;BME280;42691;47.234;27.494;2022-10-15T04:10:15;100235.31;;;15.85;100.00
56811;BME280;42691;47.234;27.494;2022-10-15T04:12:40;100214.91;;;15.76;100.00
56811;BME280;42691;47.234;27.494;2022-10-15T04:15:06;100235.53;;;15.82;100.00
56811;BME280;42691;47.234;27.494;2022-10-15T04:17:32;100238.88;;;15.84;100.00
56811;BME280;42691;47.234;27.494;2022-10-15T04:19:57;100235.53;;;15.82;100.00
56811;BME280;42691;47.234;27.494;2022-10-15T04:22:23;100234.69;;;15.81;100.00
56811;BME280;42691;47.234;27.494;2022-10-15T04:24:49;100231.13;;;15.82;100.00
56811;BME280;42691;47.234;27.494;2022-10-15T04:27:15;100230.28;;;15.82;100.00
56811;BME280;42691;47.234;27.494;2022-10-15T04:29:40;100230.38;;;15.80;100.00
56811;BME280;42691;47.234;27.494;2022-10-15T04:32:06;100207.69;;;15.65;100.00
56811;BME280;42691;47.234;27.494;2022-10-15T04:34:31;100235.81;;;15.77;100.00
56811;BME280;42691;47.234;27.494;2022-10-15T04:36:56;100238.63;;;15.74;100.00
56811;BME280;42691;47.234;27.494;2022-10-15T04:39:22;100235.91;;;15.76;100.00
56811;BME280;42691;47.234;27.494;2022-10-15T04:41:47;100235.91;;;15.76;100.00
56811;BME280;42691;47.234;27.494;2022-10-15T04:44:13;100237.78;;;15.74;100.00
56811;BME280;42691;47.234;27.494;2022-10-15T04:46:39;100234.22;;;15.75;100.00
56811;BME280;42691;47.234;27.494;2022-10-15T04:49:04;100226.44;;;15.73;100.00
56811;BME280;42691;47.234;27.494;2022-10-15T04:51:30;100232.72;;;15.71;100.00
56811;BME280;42691;47.234;27.494;2022-10-15T04:53:55;100231.03;;;15.70;100.00
56811;BME280;42691;47.234;27.494;2022-10-15T04:56:21;100233.75;;;15.68;100.00
56811;BME280;42691;47.234;27.494;2022-10-15T04:58:48;100225.22;;;15.65;100.00
56811;BME280;42691;47.234;27.494;2022-10-15T05:01:16;100232.25;;;15.64;100.00
56811;BME280;42691;47.234;27.494;2022-10-15T05:03:43;100227.84;;;15.65;100.00
56811;BME280;42691;47.234;27.494;2022-10-15T05:06:11;100229.63;;;15.64;100.00
56811;BME280;42691;47.234;27.494;2022-10-15T05:08:37;100233.09;;;15.65;100.00
56811;BME280;42691;47.234;27.494;2022-10-15T05:11:09;100229.44;;;15.67;100.00
56811;BME280;42691;47.234;27.494;2022-10-15T05:13:35;100238.53;;;15.76;100.00
56811;BME280;42691;47.234;27.494;2022-10-15T05:18:45;100240.19;;;15.91;100.00
56811;BME280;42691;47.234;27.494;2022-10-15T05:21:11;100244.72;;;16.03;100.00
56811;BME280;42691;47.234;27.494;2022-10-15T05:23:37;100255.47;;;16.13;100.00
56811;BME280;42691;47.234;27.494;2022-10-15T05:26:07;100254.16;;;16.20;100.00
56811;BME280;42691;47.234;27.494;2022-10-15T05:28:34;100246.63;;;16.28;100.00
56811;BME280;42691;47.234;27.494;2022-10-15T05:31:08;100252.09;;;16.39;100.00
56811;BME280;42691;47.234;27.494;2022-10-15T05:33:34;100246.34;;;16.47;100.00
56811;BME280;42691;47.234;27.494;2022-10-15T05:36:20;100249.66;;;16.63;100.00
56811;BME280;42691;47.234;27.494;2022-10-15T05:38:50;100257.75;;;16.74;100.00
56811;BME280;42691;47.234;27.494;2022-10-15T05:41:16;100249.91;;;16.87;100.00
56811;BME280;42691;47.234;27.494;2022-10-15T05:43:42;100256.34;;;16.96;100.00
56811;BME280;42691;47.234;27.494;2022-10-15T05:46:07;100264.09;;;17.11;100.00
56811;BME280;42691;47.234;27.494;2022-10-15T05:48:33;100265.81;;;17.25;100.00
56811;BME280;42691;47.234;27.494;2022-10-15T05:51:00;100267.50;;;17.39;100.00
56811;BME280;42691;47.234;27.494;2022-10-15T05:53:26;100263.00;;;17.54;100.00
56811;BME280;42691;47.234;27.494;2022-10-15T05:55:52;100262.16;;;17.66;100.00
56811;BME280;42691;47.234;27.494;2022-10-15T05:58:18;100270.00;;;17.80;100.00
56811;BME280;42691;47.234;27.494;2022-10-15T06:00:43;100272.53;;;17.94;100.00
56811;BME280;42691;47.234;27.494;2022-10-15T06:03:12;100276.00;;;18.07;100.00
56811;BME280;42691;47.234;27.494;2022-10-15T06:05:39;100280.81;;;18.13;100.00
56811;BME280;42691;47.234;27.494;2022-10-15T06:08:04;100283.25;;;18.29;100.00
56811;BME280;42691;47.234;27.494;2022-10-15T06:10:30;100284.88;;;18.43;100.00
56811;BME280;42691;47.234;27.494;2022-10-15T06:12:58;100291.41;;;18.50;100.00
56811;BME280;42691;47.234;27.494;2022-10-15T06:15:24;100286.53;;;18.57;100.00
56811;BME280;42691;47.234;27.494;2022-10-15T06:17:52;100284.97;;;18.67;100.00
56811;BME280;42691;47.234;27.494;2022-10-15T06:20:18;100295.97;;;18.85;100.00
56811;BME280;42691;47.234;27.494;2022-10-15T06:22:44;100295.28;;;18.94;100.00
56811;BME280;42691;47.234;27.494;2022-10-15T06:25:09;100294.34;;;18.95;100.00
56811;BME280;42691;47.234;27.494;2022-10-15T06:27:35;100293.56;;;19.05;100.00
56811;BME280;42691;47.234;27.494;2022-10-15T06:30:00;100298.53;;;19.21;100.00
56811;BME280;42691;47.234;27.494;2022-10-15T06:32:26;100301.69;;;19.26;100.00
56811;BME280;42691;47.234;27.494;2022-10-15T06:34:51;100307.06;;;19.25;100.00
56811;BME280;42691;47.234;27.494;2022-10-15T06:37:17;100301.34;;;19.31;100.00
56811;BME280;42691;47.234;27.494;2022-10-15T06:39:42;100302.09;;;19.33;100.00
56811;BME280;42691;47.234;27.494;2022-10-15T06:42:08;100303.31;;;19.40;100.00
56811;BME280;42691;47.234;27.494;2022-10-15T06:44:33;100302.72;;;19.48;100.00
56811;BME280;42691;47.234;27.494;2022-10-15T06:46:58;100309.69;;;19.49;100.00
56811;BME280;42691;47.234;27.494;2022-10-15T06:49:24;100315.63;;;19.63;100.00
56811;BME280;42691;47.234;27.494;2022-10-15T06:51:49;100311.47;;;19.72;100.00
56811;BME280;42691;47.234;27.494;2022-10-15T06:54:15;100323.19;;;19.68;100.00
56811;BME280;42691;47.234;27.494;2022-10-15T06:56:40;100322.88;;;19.73;100.00
56811;BME280;42691;47.234;27.494;2022-10-15T06:59:05;100315.22;;;19.81;100.00
56811;BME280;42691;47.234;27.494;2022-10-15T07:01:31;100317.63;;;19.84;100.00
56811;BME280;42691;47.234;27.494;2022-10-15T07:03:56;100318.69;;;19.81;100.00
56811;BME280;42691;47.234;27.494;2022-10-15T07:06:22;100323.25;;;19.79;100.00
56811;BME280;42691;47.234;27.494;2022-10-15T07:08:47;100323.47;;;19.76;100.00
56811;BME280;42691;47.234;27.494;2022-10-15T07:11:13;100324.19;;;19.78;100.00
56811;BME280;42691;47.234;27.494;2022-10-15T07:13:38;100325.88;;;19.79;100.00
56811;BME280;42691;47.234;27.494;2022-10-15T07:16:08;100326.84;;;19.78;100.00
56811;BME280;42691;47.234;27.494;2022-10-15T07:18:34;100320.00;;;19.76;100.00
56811;BME280;42691;47.234;27.494;2022-10-15T07:21:02;100326.84;;;19.78;100.00
56811;BME280;42691;47.234;27.494;2022-10-15T07:23:28;100323.94;;;19.70;100.00
56811;BME280;42691;47.234;27.494;2022-10-15T07:25:55;100331.88;;;19.70;100.00
56811;BME280;42691;47.234;27.494;2022-10-15T07:28:21;100326.78;;;19.67;100.00
56811;BME280;42691;47.234;27.494;2022-10-15T07:30:46;100312.94;;;19.52;100.00
56811;BME280;42691;47.234;27.494;2022-10-15T07:33:12;100325.34;;;19.63;100.00
56811;BME280;42691;47.234;27.494;2022-10-15T07:35:37;100326.78;;;19.67;100.00
56811;BME280;42691;47.234;27.494;2022-10-15T07:38:03;100332.06;;;19.67;100.00
56811;BME280;42691;47.234;27.494;2022-10-15T07:40:29;100325.47;;;19.61;100.00
56811;BME280;42691;47.234;27.494;2022-10-15T07:42:57;100340.28;;;19.75;100.00
56811;BME280;42691;47.234;27.494;2022-10-15T07:45:23;100331.97;;;19.68;100.00
56811;BME280;42691;47.234;27.494;2022-10-15T07:47:49;100329.72;;;19.75;100.00
56811;BME280;42691;47.234;27.494;2022-10-15T07:50:15;100342.09;;;19.86;100.00
56811;BME280;42691;47.234;27.494;2022-10-15T07:52:41;100326.97;;;19.77;100.00
56811;BME280;42691;47.234;27.494;2022-10-15T07:55:07;100338.63;;;19.85;100.00
56811;BME280;42691;47.234;27.494;2022-10-15T07:57:32;100332.63;;;19.83;100.00
56811;BME280;42691;47.234;27.494;2022-10-15T07:59:58;100333.94;;;19.89;100.00
56811;BME280;42691;47.234;27.494;2022-10-15T08:02:23;100331.16;;;19.79;100.00
56811;BME280;42691;47.234;27.494;2022-10-15T08:04:49;100304.47;;;19.60;100.00
56811;BME280;42691;47.234;27.494;2022-10-15T08:07:14;100322.88;;;19.73;100.00
56811;BME280;42691;47.234;27.494;2022-10-15T08:09:40;100329.47;;;19.78;100.00
56811;BME280;42691;47.234;27.494;2022-10-15T08:12:05;100302.19;;;19.55;100.00
56811;BME280;42691;47.234;27.494;2022-10-15T08:14:34;100334.03;;;19.76;100.00
56811;BME280;42691;47.234;27.494;2022-10-15T08:17:02;100346.78;;;19.82;100.00
56811;BME280;42691;47.234;27.494;2022-10-15T08:19:28;100341.03;;;19.88;100.00
56811;BME280;42691;47.234;27.494;2022-10-15T08:21:53;100331.63;;;19.73;96.65
56811;BME280;42691;47.234;27.494;2022-10-15T08:24:19;100340.88;;;19.79;100.00
56811;BME280;42691;47.234;27.494;2022-10-15T08:26:44;100332.00;;;19.80;97.26
56811;BME280;42691;47.234;27.494;2022-10-15T08:29:11;100337.41;;;19.78;99.47
56811;BME280;42691;47.234;27.494;2022-10-15T08:31:37;100337.41;;;19.89;100.00
56811;BME280;42691;47.234;27.494;2022-10-15T08:34:03;100338.38;;;19.88;100.00
56811;BME280;42691;47.234;27.494;2022-10-15T08:36:29;100340.31;;;19.97;100.00
56811;BME280;42691;47.234;27.494;2022-10-15T08:38:54;100315.56;;;19.87;100.00
56811;BME280;42691;47.234;27.494;2022-10-15T08:41:25;100338.03;;;19.93;100.00
56811;BME280;42691;47.234;27.494;2022-10-15T08:43:52;100321.81;;;19.97;100.00
56811;BME280;42691;47.234;27.494;2022-10-15T08:46:40;100333.72;;;20.03;100.00
56811;BME280;42691;47.234;27.494;2022-10-15T08:49:15;100339.22;;;20.00;100.00
56811;BME280;42691;47.234;27.494;2022-10-15T08:51:50;100336.09;;;19.95;96.64
56811;BME280;42691;47.234;27.494;2022-10-15T08:54:18;100342.44;;;19.70;88.87
56811;BME280;42691;47.234;27.494;2022-10-15T08:56:53;100337.59;;;19.64;87.49
56811;BME280;42691;47.234;27.494;2022-10-15T08:59:40;100336.13;;;19.60;90.81
56811;BME280;42691;47.234;27.494;2022-10-15T09:02:20;100336.88;;;19.62;94.87
56811;BME280;42691;47.234;27.494;2022-10-15T09:07:55;100337.47;;;19.65;95.22
56811;BME280;42691;47.234;27.494;2022-10-15T09:10:46;100337.31;;;19.56;94.80
56811;BME280;42691;47.234;27.494;2022-10-15T09:13:22;100331.16;;;19.20;92.15
56811;BME280;42691;47.234;27.494;2022-10-15T09:16:16;100320.81;;;19.17;91.83
56811;BME280;42691;47.234;27.494;2022-10-15T09:18:43;100320.34;;;19.12;91.55
56811;BME280;42691;47.234;27.494;2022-10-15T09:21:09;100338.00;;;19.23;94.01
56811;BME280;42691;47.234;27.494;2022-10-15T09:23:36;100329.75;;;19.27;90.81
56811;BME280;42691;47.234;27.494;2022-10-15T09:28:43;100331.94;;;19.57;100.00
56811;BME280;42691;47.234;27.494;2022-10-15T09:31:13;100335.91;;;19.63;97.50
56811;BME280;42691;47.234;27.494;2022-10-15T09:33:51;100333.38;;;19.61;93.85
56811;BME280;42691;47.234;27.494;2022-10-15T09:46:57;100337.75;;;19.74;95.09
56811;BME280;42691;47.234;27.494;2022-10-15T09:49:25;100327.75;;;19.66;89.06
56811;BME280;42691;47.234;27.494;2022-10-15T09:52:17;100333.44;;;19.73;94.16
56811;BME280;42691;47.234;27.494;2022-10-15T09:55:07;100331.41;;;19.76;94.09
56811;BME280;42691;47.234;27.494;2022-10-15T09:57:36;100323.66;;;19.62;87.99
56811;BME280;42691;47.234;27.494;2022-10-15T10:00:06;100319.09;;;19.53;86.90
56811;BME280;42691;47.234;27.494;2022-10-15T10:02:32;100316.72;;;19.37;84.63
56811;BME280;42691;47.234;27.494;2022-10-15T10:05:17;100319.03;;;19.42;86.83
56811;BME280;42691;47.234;27.494;2022-10-15T10:07:43;100317.84;;;19.46;86.95
56811;BME280;42691;47.234;27.494;2022-10-15T10:12:50;100321.06;;;19.38;84.05
56811;BME280;42691;47.234;27.494;2022-10-15T10:15:30;100307.47;;;19.55;91.09
56811;BME280;42691;47.234;27.494;2022-10-15T10:17:57;100309.44;;;19.41;86.92
56811;BME280;42691;47.234;27.494;2022-10-15T10:20:27;100313.69;;;19.30;84.42
56811;BME280;42691;47.234;27.494;2022-10-15T10:27:54;100306.78;;;19.41;86.56
56811;BME280;42691;47.234;27.494;2022-10-15T10:30:21;100306.28;;;19.35;85.86
56811;BME280;42691;47.234;27.494;2022-10-15T10:32:48;100287.59;;;19.39;87.54
56811;BME280;42691;47.234;27.494;2022-10-15T10:35:21;100304.50;;;19.36;85.30
56811;BME280;42691;47.234;27.494;2022-10-15T10:37:48;100295.09;;;19.32;85.97
56811;BME280;42691;47.234;27.494;2022-10-15T10:40:33;100304.19;;;19.28;91.57
56811;BME280;42691;47.234;27.494;2022-10-15T10:43:32;100297.41;;;19.36;88.52
56811;BME280;42691;47.234;27.494;2022-10-15T10:46:04;100288.94;;;19.44;90.70
56811;BME280;42691;47.234;27.494;2022-10-15T10:48:43;100300.94;;;19.48;89.29
56811;BME280;42691;47.234;27.494;2022-10-15T10:51:21;100288.44;;;19.39;86.22
56811;BME280;42691;47.234;27.494;2022-10-15T10:53:51;100301.03;;;19.47;86.24
56811;BME280;42691;47.234;27.494;2022-10-15T10:56:39;100297.75;;;19.56;88.98
56811;BME280;42691;47.234;27.494;2022-10-15T10:59:16;100291.69;;;19.43;83.73
56811;BME280;42691;47.234;27.494;2022-10-15T11:01:42;100286.63;;;19.40;82.94
56811;BME280;42691;47.234;27.494;2022-10-15T11:04:22;100289.75;;;19.45;84.34
56811;BME280;42691;47.234;27.494;2022-10-15T11:06:59;100283.78;;;19.43;86.06
56811;BME280;42691;47.234;27.494;2022-10-15T11:09:41;100278.25;;;19.46;86.20
56811;BME280;42691;47.234;27.494;2022-10-15T11:17:50;100277.22;;;19.24;83.29
56811;BME280;42691;47.234;27.494;2022-10-15T11:26:09;100272.75;;;19.14;82.57
56811;BME280;42691;47.234;27.494;2022-10-15T11:28:53;100275.25;;;19.15;84.39
56811;BME280;42691;47.234;27.494;2022-10-15T11:32:00;100263.06;;;19.25;83.39
56811;BME280;42691;47.234;27.494;2022-10-15T11:37:08;100267.88;;;19.31;83.42
56811;BME280;42691;47.234;27.494;2022-10-15T11:39:57;100262.41;;;19.34;86.91
56811;BME280;42691;47.234;27.494;2022-10-15T11:42:47;100262.16;;;19.38;84.05
56811;BME280;42691;47.234;27.494;2022-10-15T11:53:33;100257.88;;;19.48;85.46
56811;BME280;42691;47.234;27.494;2022-10-15T11:56:13;100261.31;;;19.37;83.61
56811;BME280;42691;47.234;27.494;2022-10-15T11:58:48;100257.25;;;19.44;85.06
56811;BME280;42691;47.234;27.494;2022-10-15T12:01:41;100261.31;;;19.37;84.24
56811;BME280;42691;47.234;27.494;2022-10-15T12:04:19;100256.06;;;19.37;83.51
56811;BME280;42691;47.234;27.494;2022-10-15T12:06:50;100253.91;;;19.42;84.74
56811;BME280;42691;47.234;27.494;2022-10-15T12:09:25;100250.25;;;19.56;88.59
56811;BME280;42691;47.234;27.494;2022-10-15T12:19:55;100256.78;;;19.50;85.68
56811;BME280;42691;47.234;27.494;2022-10-15T12:24:56;100254.50;;;19.46;84.25
56811;BME280;42691;47.234;27.494;2022-10-15T12:27:30;100256.50;;;19.31;82.49
56811;BME280;42691;47.234;27.494;2022-10-15T12:32:26;100259.00;;;19.32;83.44
56811;BME280;42691;47.234;27.494;2022-10-15T12:35:01;100260.91;;;19.30;82.82
56811;BME280;42691;47.234;27.494;2022-10-15T12:37:28;100257.19;;;19.22;82.26
56811;BME280;42691;47.234;27.494;2022-10-15T12:39:59;100250.84;;;19.24;82.43
56811;BME280;42691;47.234;27.494;2022-10-15T12:42:37;100258.41;;;19.29;84.35
56811;BME280;42691;47.234;27.494;2022-10-15T12:45:07;100250.78;;;19.37;85.39
56811;BME280;42691;47.234;27.494;2022-10-15T12:53:04;100244.91;;;19.45;83.69
56811;BME280;42691;47.234;27.494;2022-10-15T12:55:38;100251.63;;;19.38;82.49
56811;BME280;42691;47.234;27.494;2022-10-15T13:00:41;100253.78;;;19.44;84.21
56811;BME280;42691;47.234;27.494;2022-10-15T13:05:38;100251.63;;;19.38;82.08
56811;BME280;42691;47.234;27.494;2022-10-15T13:08:10;100252.28;;;19.28;82.47
56811;BME280;42691;47.234;27.494;2022-10-15T13:10:46;100257.13;;;19.34;82.26
56811;BME280;42691;47.234;27.494;2022-10-15T13:13:21;100245.50;;;19.37;82.54
56811;BME280;42691;47.234;27.494;2022-10-15T13:15:59;100250.31;;;19.43;84.24
56811;BME280;42691;47.234;27.494;2022-10-15T13:18:27;100239.38;;;19.36;82.10
56811;BME280;42691;47.234;27.494;2022-10-15T13:20:54;100238.13;;;19.29;80.40
56811;BME280;42691;47.234;27.494;2022-10-15T13:25:47;100235.56;;;19.41;85.65
56811;BME280;42691;47.234;27.494;2022-10-15T13:28:33;100231.34;;;19.38;82.44
56811;BME280;42691;47.234;27.494;2022-10-15T13:31:02;100240.81;;;19.41;82.74
56811;BME280;42691;47.234;27.494;2022-10-15T13:33:30;100242.03;;;19.48;84.76
56811;BME280;42691;47.234;27.494;2022-10-15T13:36:04;100238.69;;;19.46;82.09
56811;BME280;42691;47.234;27.494;2022-10-15T13:38:30;100237.72;;;19.47;82.82
56811;BME280;42691;47.234;27.494;2022-10-15T13:40:55;100239.88;;;19.42;83.33
56811;BME280;42691;47.234;27.494;2022-10-15T13:43:22;100239.88;;;19.42;81.55
56811;BME280;42691;47.234;27.494;2022-10-15T13:45:52;100235.78;;;19.38;80.91
56811;BME280;42691;47.234;27.494;2022-10-15T13:48:20;100236.50;;;19.40;81.71
56811;BME280;42691;47.234;27.494;2022-10-15T13:50:50;100237.94;;;19.44;80.67
56811;BME280;42691;47.234;27.494;2022-10-15T13:53:32;100231.72;;;19.45;80.81
56811;BME280;42691;47.234;27.494;2022-10-15T13:56:01;100230.16;;;19.42;81.46
56811;BME280;42691;47.234;27.494;2022-10-15T13:58:29;100228.72;;;19.49;84.24
56811;BME280;42691;47.234;27.494;2022-10-15T14:00:59;100228.59;;;19.51;84.71
56811;BME280;42691;47.234;27.494;2022-10-15T14:03:27;100228.00;;;19.47;82.37
56811;BME280;42691;47.234;27.494;2022-10-15T14:05:55;100231.72;;;19.45;80.32
56811;BME280;42691;47.234;27.494;2022-10-15T14:08:27;100227.28;;;19.45;81.62
56811;BME280;42691;47.234;27.494;2022-10-15T14:10:56;100224.75;;;19.44;80.40
56811;BME280;42691;47.234;27.494;2022-10-15T14:13:22;100225.72;;;19.43;79.83
56811;BME280;42691;47.234;27.494;2022-10-15T14:15:55;100230.50;;;19.38;79.17
56811;BME280;42691;47.234;27.494;2022-10-15T14:18:32;100226.91;;;19.39;80.50
56811;BME280;42691;47.234;27.494;2022-10-15T14:20:59;100223.19;;;19.41;80.32